Time;durP1;ratioP1;P1;durP2;ratioP2;P2;SDS_P1;SDS_P2;PMS_P1;PMS_P2;Temp;Humidity;BMP_temperature;BMP_pressure;BME280_temperature;BME280_humidity;BME280_pressure;Samples;Min_cycle;Max_cycle;Signal;HPM_P1;HPM_P2
2023/07/02 00:02:16;;;;;;;3.13;2.70;;;;;;;-143.84;77.85;45092.88;4932804;29;21133;-56
2023/07/02 00:04:45;;;;;;;5.00;2.43;;;;;;;-143.84;77.71;45071.91;4933060;29;20448;-56
2023/07/02 00:07:12;;;;;;;5.30;2.80;;;;;;;-143.84;77.74;45075.72;4932732;29;20505;-56
2023/07/02 00:09:39;;;;;;;3.60;2.70;;;;;;;-143.84;77.68;45049.06;4932793;29;20479;-56
2023/07/02 00:12:07;;;;;;;2.80;2.60;;;;;;;-143.84;77.84;45043.34;4932540;29;20508;-56
2023/07/02 00:14:34;;;;;;;7.80;2.90;;;;;;;-143.84;77.57;45045.25;4932817;29;20444;-56
2023/07/02 00:17:01;;;;;;;4.27;2.80;;;;;;;-143.84;77.60;45049.06;4932635;29;21382;-56
2023/07/02 00:19:28;;;;;;;3.07;2.77;;;;;;;-143.84;76.89;45039.53;4932656;29;20448;-56
2023/07/02 00:21:58;;;;;;;2.93;2.73;;;;;;;-143.84;77.08;45052.88;4932598;29;20459;-56
2023/07/02 00:24:25;;;;;;;4.47;2.93;;;;;;;-143.84;76.84;45060.50;4932517;29;20532;-56
2023/07/02 00:26:52;;;;;;;5.60;3.00;;;;;;;-143.84;76.97;45043.34;4932540;29;20511;-56
2023/07/02 00:29:19;;;;;;;2.87;2.43;;;;;;;-143.84;77.60;45045.25;4932259;29;20452;-56
2023/07/02 00:31:46;;;;;;;4.07;2.70;;;;;;;-143.84;77.98;45052.88;4932006;29;20488;-56
2023/07/02 00:34:13;;;;;;;3.40;3.03;;;;;;;-143.84;78.34;45073.81;4932325;29;20444;-56
2023/07/02 00:36:41;;;;;;;4.60;2.30;;;;;;;-143.84;79.21;45064.31;4932074;29;20454;-56
2023/07/02 00:39:11;;;;;;;3.30;3.00;;;;;;;-143.84;79.21;45079.53;4932239;29;20942;-56
2023/07/02 00:41:38;;;;;;;3.13;2.77;;;;;;;-143.84;80.19;45043.34;4932132;29;20462;-56
2023/07/02 00:44:06;;;;;;;8.30;3.27;;;;;;;-143.84;80.82;45077.63;4932107;29;20559;-56
2023/07/02 00:46:33;;;;;;;6.67;3.23;;;;;;;-143.84;81.09;45085.25;4931900;29;20456;-56
2023/07/02 00:49:01;;;;;;;5.90;2.80;;;;;;;-143.84;81.11;45073.81;4932008;29;20523;-56
2023/07/02 00:51:29;;;;;;;4.73;3.30;;;;;;;-143.84;82.01;45056.69;4931909;29;20456;-56
2023/07/02 00:53:59;;;;;;;3.83;3.27;;;;;;;-143.84;81.93;45043.34;4932032;29;20455;-56
2023/07/02 00:56:28;;;;;;;5.63;3.30;;;;;;;-143.84;82.36;45070.00;4931855;29;20453;-56
2023/07/02 00:58:58;;;;;;;4.60;3.00;;;;;;;-143.84;82.21;45064.31;4931937;29;20538;-56
2023/07/02 01:01:27;;;;;;;3.20;3.00;;;;;;;-143.84;82.50;45070.00;4931947;29;20452;-56
2023/07/02 01:03:59;;;;;;;4.43;2.90;;;;;;;-143.84;83.15;45056.69;4931414;29;20511;-56
2023/07/02 01:06:27;;;;;;;3.83;3.53;;;;;;;-143.84;83.06;45056.69;4931927;29;20455;-56
2023/07/02 01:08:56;;;;;;;3.57;3.27;;;;;;;-143.84;82.90;45081.44;4931698;29;20479;-56
2023/07/02 01:11:27;;;;;;;3.90;3.50;;;;;;;-143.84;83.31;45052.88;4931829;29;20475;-56
2023/07/02 01:14:01;;;;;;;3.47;3.20;;;;;;;-143.84;83.70;45070.00;4932001;29;20829;-56
2023/07/02 01:16:32;;;;;;;5.77;2.77;;;;;;;-143.84;83.93;45052.88;4931716;29;20441;-56
2023/07/02 01:19:03;;;;;;;7.70;3.80;;;;;;;-143.84;84.75;45070.00;4932089;29;20492;-56
2023/07/02 01:21:33;;;;;;;4.80;3.60;;;;;;;-143.84;84.75;45049.06;4931993;29;20448;-56
2023/07/02 01:24:01;;;;;;;4.63;3.63;;;;;;;-143.84;85.17;45045.25;4931613;29;20452;-56
2023/07/02 01:26:31;;;;;;;4.20;3.80;;;;;;;-143.84;85.23;45071.91;4931644;29;20440;-56
2023/07/02 01:28:58;;;;;;;5.20;3.60;;;;;;;-143.84;85.76;45033.84;4931489;29;20886;-56
2023/07/02 01:31:25;;;;;;;4.03;3.73;;;;;;;-143.84;85.88;45064.31;4931370;29;20570;-56
2023/07/02 01:33:52;;;;;;;5.83;3.30;;;;;;;-143.84;86.76;45043.34;4931701;29;20447;-56
2023/07/02 01:36:19;;;;;;;5.47;3.73;;;;;;;-143.84;86.60;45035.75;4931740;29;20942;-56
2023/07/02 01:38:48;;;;;;;5.10;3.43;;;;;;;-143.84;86.96;45064.31;4931404;29;20488;-56
2023/07/02 01:41:15;;;;;;;4.27;3.87;;;;;;;-143.84;87.50;45031.94;4931468;29;20459;-56
2023/07/02 01:43:42;;;;;;;4.03;3.30;;;;;;;-143.84;88.32;45031.94;4931321;29;20487;-56
2023/07/02 01:46:09;;;;;;;8.63;4.00;;;;;;;-143.84;88.62;45037.66;4931590;29;20452;-56
2023/07/02 01:48:36;;;;;;;7.13;3.77;;;;;;;-143.84;88.67;45037.66;4931487;29;20444;-56
2023/07/02 01:51:03;;;;;;;4.27;3.77;;;;;;;-143.84;87.99;45035.75;4931674;29;20449;-56
2023/07/02 01:53:31;;;;;;;5.97;3.80;;;;;;;-143.84;87.93;45039.53;4931396;29;20448;-56
2023/07/02 01:55:59;;;;;;;6.00;4.47;;;;;;;-143.84;87.96;45022.41;4931340;29;21006;-56
2023/07/02 01:58:26;;;;;;;10.43;3.90;;;;;;;-143.84;88.58;45049.06;4931188;29;21024;-56
2023/07/02 02:00:53;;;;;;;6.67;3.90;;;;;;;-143.84;90.19;45022.41;4931349;29;20451;-56
2023/07/02 02:03:21;;;;;;;10.30;4.70;;;;;;;-143.84;90.75;45020.50;4931288;29;20935;-56
2023/07/02 02:05:48;;;;;;;6.20;4.17;;;;;;;-143.84;90.67;45026.22;4931323;29;20453;-56
2023/07/02 02:08:15;;;;;;;4.73;4.33;;;;;;;-143.84;90.89;45018.59;4931159;29;20515;-56
2023/07/02 02:10:42;;;;;;;4.57;4.17;;;;;;;-143.84;90.98;45022.41;4931225;29;20451;-56
2023/07/02 02:13:11;;;;;;;6.80;4.47;;;;;;;-143.84;91.27;45035.75;4931621;29;20507;-56
2023/07/02 02:15:38;;;;;;;6.47;4.40;;;;;;;-143.84;92.09;45012.88;4932185;29;20448;-56
2023/07/02 02:18:05;;;;;;;7.30;4.67;;;;;;;-143.84;92.27;45016.69;4934754;29;20487;-56
2023/07/02 02:20:32;;;;;;;7.97;4.80;;;;;;;-143.84;92.48;45007.19;4934727;29;20852;-56
2023/07/02 02:22:59;;;;;;;4.70;4.30;;;;;;;-143.84;92.35;45033.84;4934482;29;20828;-56
2023/07/02 02:25:26;;;;;;;8.17;4.73;;;;;;;-143.84;92.37;45012.88;4934523;29;20456;-56
2023/07/02 02:27:53;;;;;;;11.53;4.63;;;;;;;-143.84;92.08;45018.59;4934707;29;20445;-56
2023/07/02 02:30:22;;;;;;;10.43;4.37;;;;;;;-143.84;91.69;45050.97;4934376;29;20975;-56
2023/07/02 02:32:49;;;;;;;10.80;5.00;;;;;;;-143.84;91.07;45031.94;4942986;29;20497;-56
2023/07/02 02:35:16;;;;;;;4.97;4.00;;;;;;;-143.84;90.38;45033.84;4934472;29;21351;-56
2023/07/02 02:37:44;;;;;;;11.93;3.47;;;;;;;-143.84;89.79;45022.41;4942109;29;20488;-56
2023/07/02 02:40:12;;;;;;;4.50;4.00;;;;;;;-143.84;89.84;45016.69;4953885;29;20463;-56
2023/07/02 02:42:40;;;;;;;5.50;4.03;;;;;;;-143.84;89.14;45031.94;4953761;29;20493;-56
2023/07/02 02:45:08;;;;;;;5.33;4.17;;;;;;;-143.84;88.88;45026.22;4953344;29;20511;-56
2023/07/02 02:47:36;;;;;;;5.13;3.50;;;;;;;-143.84;87.77;45037.66;4936320;29;20476;-56
2023/07/02 02:50:04;;;;;;;7.77;4.03;;;;;;;-143.84;87.56;45030.03;4942857;29;20460;-54
2023/07/02 02:52:31;;;;;;;3.80;3.50;;;;;;;-143.84;87.56;45043.34;4953500;29;21017;-54
2023/07/02 02:54:58;;;;;;;10.50;4.47;;;;;;;-143.84;87.59;45050.97;4949254;29;20457;-54
2023/07/02 02:57:25;;;;;;;6.27;3.90;;;;;;;-143.84;87.83;45024.31;4934040;29;20548;-54
2023/07/02 02:59:52;;;;;;;11.20;3.97;;;;;;;-143.84;87.47;45054.78;4942446;29;20457;-55
2023/07/02 03:02:19;;;;;;;6.00;4.53;;;;;;;-143.84;87.49;45028.13;4953350;29;20444;-56
2023/07/02 03:04:49;;;;;;;4.90;3.83;;;;;;;-143.84;87.39;45037.66;4946900;29;20532;-56
2023/07/02 03:07:16;;;;;;;4.70;4.30;;;;;;;-143.84;87.33;45041.44;4953117;29;20849;-56
2023/07/02 03:09:43;;;;;;;5.03;4.47;;;;;;;-143.84;87.73;45052.88;4952947;29;20510;-56
2023/07/02 03:12:11;;;;;;;6.90;3.80;;;;;;;-143.84;89.73;45043.34;4953108;29;20531;-56
2023/07/02 03:14:38;;;;;;;12.53;4.10;;;;;;;-143.84;89.58;45007.19;4952962;29;20454;-56
2023/07/02 03:17:05;;;;;;;4.90;4.50;;;;;;;-143.84;89.80;45033.84;4939290;29;20468;-56
2023/07/02 03:19:32;;;;;;;9.40;4.73;;;;;;;-143.84;90.27;45018.59;4933743;29;20579;-56
2023/07/02 03:22:01;;;;;;;9.07;4.17;;;;;;;-143.84;90.32;45014.78;4952558;29;20507;-56
2023/07/02 03:24:28;;;;;;;3.80;3.57;;;;;;;-143.84;90.50;45009.09;4952708;29;21134;-56
2023/07/02 03:26:55;;;;;;;4.87;4.57;;;;;;;-143.84;90.32;45012.88;4952243;28;20435;-56
2023/07/02 03:29:22;;;;;;;5.00;3.90;;;;;;;-143.84;89.90;45001.47;4952226;28;20519;-56
2023/07/02 03:31:49;;;;;;;9.10;3.80;;;;;;;-143.84;89.58;45022.41;4951208;29;20938;-56
2023/07/02 03:34:16;;;;;;;5.70;3.70;;;;;;;-143.84;89.17;45024.31;4950540;29;20449;-56
2023/07/02 03:36:43;;;;;;;8.00;3.67;;;;;;;-143.84;88.19;45016.69;4950107;29;20554;-56
2023/07/02 03:39:12;;;;;;;9.60;3.40;;;;;;;-143.84;85.91;45039.53;4932829;29;20487;-56
2023/07/02 03:41:39;;;;;;;7.33;3.37;;;;;;;-143.84;83.52;45037.66;4932907;29;20469;-56
2023/07/02 03:44:06;;;;;;;5.17;3.10;;;;;;;-143.84;79.79;45026.22;4932950;29;20879;-56
2023/07/02 03:46:33;;;;;;;3.30;2.93;;;;;;;-143.84;77.13;45028.13;4932969;29;20459;-56
2023/07/02 03:49:01;;;;;;;5.53;2.90;;;;;;;-143.84;74.64;45016.69;4932930;29;20519;-56
2023/07/02 03:51:28;;;;;;;4.53;3.13;;;;;;;-143.84;72.75;45003.38;4933352;29;20443;-57
2023/07/02 03:53:55;;;;;;;6.20;2.80;;;;;;;-143.84;72.96;45037.66;4945243;29;21033;-57
2023/07/02 03:56:24;;;;;;;5.70;3.37;;;;;;;-143.84;74.19;45030.03;4933933;29;20447;-56
2023/07/02 03:58:51;;;;;;;3.10;2.80;;;;;;;-143.84;74.01;45028.13;4943899;29;21156;-56
2023/07/02 04:01:18;;;;;;;5.90;3.03;;;;;;;-143.84;73.39;45020.50;4936110;29;20454;-56
2023/07/02 04:03:50;;;;;;;6.23;3.20;;;;;;;-143.84;73.90;45033.84;4949060;29;20451;-57
2023/07/02 04:06:17;;;;;;;5.37;3.70;;;;;;;-143.84;73.62;45020.50;4938329;29;20459;-56
2023/07/02 04:08:44;;;;;;;2.90;2.60;;;;;;;-143.84;73.90;45024.31;4934630;29;20472;-56
2023/07/02 04:11:11;;;;;;;4.03;2.70;;;;;;;-143.84;73.65;45024.31;4934749;29;20460;-56
2023/07/02 04:13:40;;;;;;;6.00;3.13;;;;;;;-143.84;73.22;45026.22;4947298;29;20462;-57
2023/07/02 04:16:08;;;;;;;5.30;2.73;;;;;;;-143.84;71.75;45022.41;4931998;29;20498;-56
2023/07/02 04:18:35;;;;;;;6.07;2.60;;;;;;;-143.84;69.24;45005.28;4935507;29;20988;-56
2023/07/02 04:21:02;;;;;;;3.33;2.40;;;;;;;-143.84;68.30;45005.28;4938948;29;21130;-57
2023/07/02 04:23:29;;;;;;;2.50;2.30;;;;;;;-143.84;68.81;45020.50;4943980;29;20906;-56
2023/07/02 04:25:56;;;;;;;6.77;2.40;;;;;;;-143.84;67.87;45024.31;4946533;29;21023;-57
2023/07/02 04:28:24;;;;;;;2.70;2.23;;;;;;;-143.84;67.52;45007.19;4940668;29;20519;-57
2023/07/02 04:30:52;;;;;;;2.83;2.63;;;;;;;-143.84;66.68;45005.28;4938447;29;20472;-56
2023/07/02 04:33:20;;;;;;;2.40;2.20;;;;;;;-143.84;65.09;44997.66;4950218;29;20509;-57
2023/07/02 04:35:47;;;;;;;5.00;2.80;;;;;;;-143.84;66.13;45018.59;4935617;29;21008;-57
2023/07/02 04:38:14;;;;;;;3.57;3.23;;;;;;;-143.84;66.02;44999.56;4933197;29;20590;-56
2023/07/02 04:40:44;;;;;;;5.33;2.57;;;;;;;-143.84;64.19;44997.66;4944779;29;20530;-56
2023/07/02 04:43:12;;;;;;;2.67;2.30;;;;;;;-143.84;63.58;45014.78;4932511;29;20440;-56
2023/07/02 04:45:39;;;;;;;7.83;2.40;;;;;;;-143.84;63.43;44978.63;4931830;29;20497;-56
2023/07/02 04:48:08;;;;;;;5.63;2.70;;;;;;;-143.84;62.82;45014.78;4947900;29;20454;-56
2023/07/02 04:50:35;;;;;;;5.60;2.67;;;;;;;-143.84;62.88;44982.41;4948576;29;20529;-56
2023/07/02 04:53:02;;;;;;;2.53;2.37;;;;;;;-143.84;61.09;45016.69;4941108;29;20599;-56
2023/07/02 04:55:29;;;;;;;4.50;2.57;;;;;;;-143.84;59.30;44965.28;4938334;29;20448;-56
2023/07/02 04:57:56;;;;;;;2.60;2.40;;;;;;;-143.84;59.99;44980.53;4932109;29;20444;-56
2023/07/02 05:00:24;;;;;;;6.97;2.97;;;;;;;-143.84;61.04;44980.53;4935196;29;20454;-56
2023/07/02 05:02:51;;;;;;;2.23;2.00;;;;;;;-143.84;61.06;44984.31;4931357;29;20462;-56
2023/07/02 05:05:20;;;;;;;2.80;2.60;;;;;;;-143.84;62.21;44999.56;4936089;29;20478;-56
2023/07/02 05:07:47;;;;;;;4.90;2.53;;;;;;;-143.84;62.93;45014.78;4948828;29;20462;-56
2023/07/02 05:10:14;;;;;;;2.53;2.20;;;;;;;-143.84;65.10;44986.22;4949295;29;20521;-56
2023/07/02 05:12:41;;;;;;;6.30;2.83;;;;;;;-143.84;65.16;44997.66;4936865;29;20463;-56
2023/07/02 05:15:09;;;;;;;5.37;3.13;;;;;;;-143.84;65.85;45014.78;4945652;29;20981;-56
2023/07/02 05:17:36;;;;;;;12.80;3.10;;;;;;;-143.84;67.14;45003.38;4934240;29;20483;-56
2023/07/02 05:20:04;;;;;;;6.23;3.10;;;;;;;-143.84;68.35;44991.94;4938386;29;20491;-56
2023/07/02 05:22:33;;;;;;;3.73;2.50;;;;;;;-143.84;68.10;44993.84;4941879;29;21028;-56
2023/07/02 05:25:00;;;;;;;10.27;2.90;;;;;;;-143.84;69.18;44997.66;4938835;29;20591;-56
2023/07/02 05:27:27;;;;;;;5.57;2.93;;;;;;;-143.84;69.35;44999.56;4940612;29;21114;-56
2023/07/02 05:29:54;;;;;;;4.90;2.80;;;;;;;-143.84;69.66;45024.31;4941419;29;20460;-56
2023/07/02 05:32:21;;;;;;;12.30;3.30;;;;;;;-143.84;70.68;45001.47;4934793;29;20976;-56
2023/07/02 05:34:48;;;;;;;3.30;2.70;;;;;;;-143.84;70.26;45001.47;4931745;29;20443;-57
2023/07/02 05:37:15;;;;;;;8.33;2.53;;;;;;;-143.84;69.53;45018.59;4931486;29;20445;-56
2023/07/02 05:39:44;;;;;;;3.63;2.87;;;;;;;-143.84;71.09;45030.03;4931901;29;21084;-56
2023/07/02 05:42:11;;;;;;;3.90;2.83;;;;;;;-143.84;71.20;45022.41;4937691;29;20498;-56
2023/07/02 05:44:38;;;;;;;5.80;3.60;;;;;;;-143.84;71.65;45007.19;4950596;29;20513;-56
2023/07/02 05:47:05;;;;;;;3.50;2.53;;;;;;;-143.84;71.91;45001.47;4940899;29;20448;-56
2023/07/02 05:49:32;;;;;;;4.67;3.73;;;;;;;-143.84;71.65;44999.56;4931739;29;20447;-56
2023/07/02 05:51:59;;;;;;;5.50;3.07;;;;;;;-143.84;71.40;45005.28;4934656;29;20523;-57
2023/07/02 05:54:26;;;;;;;3.40;2.60;;;;;;;-143.84;71.71;44972.91;4938114;29;20452;-56
2023/07/02 05:56:55;;;;;;;4.43;2.73;;;;;;;-143.84;70.48;45001.47;4951707;29;20455;-56
2023/07/02 05:59:22;;;;;;;8.10;2.60;;;;;;;-143.84;70.96;45001.47;4949262;29;20489;-56
2023/07/02 06:01:49;;;;;;;13.93;3.10;;;;;;;-143.84;70.80;44971.00;4936358;29;20458;-56
2023/07/02 06:04:16;;;;;;;5.27;3.30;;;;;;;-143.84;70.12;45007.19;4936012;29;20455;-56
2023/07/02 06:06:43;;;;;;;5.90;2.77;;;;;;;-143.84;69.36;45028.13;4942457;29;20987;-56
2023/07/02 06:09:10;;;;;;;6.00;3.50;;;;;;;-143.84;70.07;45003.38;4951084;29;20534;-56
2023/07/02 06:11:37;;;;;;;7.60;3.47;;;;;;;-143.84;70.70;44997.66;4954027;29;20520;-56
2023/07/02 06:14:06;;;;;;;3.70;3.40;;;;;;;-143.84;68.95;44999.56;4953888;29;20975;-56
2023/07/02 06:16:33;;;;;;;10.90;3.47;;;;;;;-143.84;67.33;45009.09;4951973;29;20447;-56
2023/07/02 06:19:00;;;;;;;6.23;2.40;;;;;;;-143.84;68.77;45003.38;4934516;29;20482;-56
2023/07/02 06:21:29;;;;;;;7.93;3.37;;;;;;;-143.84;67.61;44984.31;4936572;29;20444;-56
2023/07/02 06:23:58;;;;;;;4.53;3.10;;;;;;;-143.84;67.95;44988.13;4942712;29;20446;-56
2023/07/02 06:26:25;;;;;;;5.73;3.17;;;;;;;-143.84;67.45;44986.22;4943686;29;20457;-56
2023/07/02 06:28:52;;;;;;;3.07;2.80;;;;;;;-143.84;68.35;44988.13;4944547;29;20435;-56
2023/07/02 06:31:20;;;;;;;3.47;2.70;;;;;;;-143.84;68.89;45018.59;4940991;29;20482;-56
2023/07/02 06:33:48;;;;;;;4.93;3.80;;;;;;;-143.84;69.53;44995.75;4942172;29;20525;-56
2023/07/02 06:36:15;;;;;;;11.33;3.23;;;;;;;-143.84;70.44;44995.75;4942322;29;20453;-56
2023/07/02 06:38:42;;;;;;;4.37;3.70;;;;;;;-143.84;73.02;44995.75;4944721;29;21032;-56
2023/07/02 06:41:09;;;;;;;4.33;3.47;;;;;;;-143.84;71.25;44999.56;4943076;29;20447;-56
2023/07/02 06:43:36;;;;;;;12.23;4.40;;;;;;;-143.84;71.20;44999.56;4944167;29;20518;-56
2023/07/02 06:46:03;;;;;;;6.07;3.17;;;;;;;-143.84;72.84;45020.50;4944543;29;20466;-56
2023/07/02 06:48:32;;;;;;;5.43;2.90;;;;;;;-143.84;73.27;44995.75;4953193;29;20505;-56
2023/07/02 06:50:59;;;;;;;8.70;3.17;;;;;;;-143.84;74.21;45010.97;4953033;29;20460;-56
2023/07/02 06:53:26;;;;;;;7.97;3.53;;;;;;;-143.84;73.97;45018.59;4953282;29;20517;-56
2023/07/02 06:55:54;;;;;;;4.60;3.70;;;;;;;-143.84;74.39;44988.13;4949641;29;20432;-56
2023/07/02 06:58:21;;;;;;;7.47;3.40;;;;;;;-143.84;74.49;44976.72;4933206;29;20463;-56
2023/07/02 07:00:48;;;;;;;3.93;3.43;;;;;;;-143.84;74.51;45001.47;4937437;29;20483;-56
2023/07/02 07:03:17;;;;;;;5.33;3.17;;;;;;;-143.84;74.41;44986.22;4952857;28;20462;-56
2023/07/02 07:05:46;;;;;;;5.57;3.90;;;;;;;-143.84;75.05;45005.28;4952348;29;20908;-56
2023/07/02 07:08:13;;;;;;;4.00;3.60;;;;;;;-143.84;74.63;45003.38;4950489;29;20471;-56
2023/07/02 07:10:41;;;;;;;6.13;3.67;;;;;;;-143.84;73.93;44986.22;4952851;29;20466;-56
2023/07/02 07:13:08;;;;;;;6.80;4.50;;;;;;;-143.84;73.34;44991.94;4952886;29;20448;-56
2023/07/02 07:15:36;;;;;;;7.03;4.80;;;;;;;-143.84;73.59;44967.19;4952214;29;20554;-56
2023/07/02 07:18:03;;;;;;;8.87;6.43;;;;;;;-143.84;73.40;45022.41;4952562;29;20494;-56
2023/07/02 07:20:31;;;;;;;4.83;4.43;;;;;;;-143.84;73.34;45009.09;4952684;29;20493;-56
2023/07/02 07:23:00;;;;;;;4.63;3.77;;;;;;;-143.84;72.59;44997.66;4952976;29;20582;-56
2023/07/02 07:25:27;;;;;;;7.90;3.90;;;;;;;-143.84;70.99;44991.94;4952537;29;20506;-56
2023/07/02 07:27:54;;;;;;;4.47;3.73;;;;;;;-143.84;69.19;44978.63;4942684;29;20531;-56
2023/07/02 07:30:22;;;;;;;12.60;3.47;;;;;;;-143.84;71.79;44940.53;4933399;29;20976;-56
2023/07/02 07:32:50;;;;;;;3.70;3.40;;;;;;;-143.84;68.96;44961.47;4936232;29;21143;-56
2023/07/02 07:35:18;;;;;;;4.23;3.33;;;;;;;-143.84;64.75;44980.53;4935127;29;20453;-56
2023/07/02 07:37:45;;;;;;;3.50;3.20;;;;;;;-143.84;66.32;44963.38;4952312;29;20450;-56
2023/07/02 07:40:14;;;;;;;5.70;3.70;;;;;;;-143.84;69.05;45005.28;4952067;29;20522;-56
2023/07/02 07:42:42;;;;;;;4.70;3.00;;;;;;;-143.84;69.21;44988.13;4952240;29;20528;-56
2023/07/02 07:45:10;;;;;;;3.13;2.80;;;;;;;-143.84;70.40;45009.09;4952587;29;20788;-56
2023/07/02 07:47:37;;;;;;;7.33;3.77;;;;;;;-143.84;70.98;44980.53;4952495;29;20445;-56
2023/07/02 07:50:10;;;;;;;5.77;3.93;;;;;;;-143.84;71.03;44971.00;4952268;29;20493;-56
2023/07/02 07:52:38;;;;;;;8.33;3.40;;;;;;;-143.84;70.86;45007.19;4934434;29;20451;-56
2023/07/02 07:55:06;;;;;;;7.50;4.17;;;;;;;-143.84;70.82;44990.03;4939688;29;20446;-56
2023/07/02 07:57:35;;;;;;;3.50;3.20;;;;;;;-143.84;70.80;44997.66;4939590;29;20486;-56
2023/07/02 08:00:04;;;;;;;3.40;3.10;;;;;;;-143.84;70.26;44980.53;4940889;29;20507;-56
2023/07/02 08:02:31;;;;;;;3.13;2.80;;;;;;;-143.84;69.27;45009.09;4933218;29;20447;-56
2023/07/02 08:04:58;;;;;;;3.13;2.93;;;;;;;-143.84;67.94;44999.56;4937184;29;20450;-56
2023/07/02 08:07:25;;;;;;;8.17;3.30;;;;;;;-143.84;67.70;45016.69;4951147;29;21306;-56
2023/07/02 08:09:52;;;;;;;9.20;3.03;;;;;;;-143.84;68.26;45007.19;4940018;29;20469;-56
2023/07/02 08:12:19;;;;;;;4.13;3.80;;;;;;;-143.84;69.60;45037.66;4944461;29;21229;-55
2023/07/02 08:14:48;;;;;;;6.60;4.10;;;;;;;-143.84;67.14;44990.03;5131641;23;20951;-55
2023/07/02 08:17:15;;;;;;;5.93;3.60;;;;;;;-143.84;69.46;45007.19;4904361;29;20469;-55
2023/07/02 08:19:42;;;;;;;4.40;3.43;;;;;;;-143.84;69.27;44988.13;4894514;29;21010;-55
2023/07/02 08:22:09;;;;;;;4.10;2.80;;;;;;;-143.84;67.76;45007.19;4895046;29;20875;-55
2023/07/02 08:24:36;;;;;;;5.80;3.40;;;;;;;-143.84;66.81;44957.66;4894601;29;20446;-55
2023/07/02 08:27:04;;;;;;;5.33;3.67;;;;;;;-143.84;67.29;44976.72;4894533;29;20513;-55
2023/07/02 08:29:31;;;;;;;4.00;3.60;;;;;;;-143.84;68.54;45003.38;4894353;29;20548;-55
2023/07/02 08:32:00;;;;;;;4.83;3.43;;;;;;;-143.84;66.63;44971.00;4894483;29;21026;-55
2023/07/02 08:34:27;;;;;;;5.30;4.00;;;;;;;-143.84;66.33;44982.41;4894435;29;20521;-55
2023/07/02 08:36:54;;;;;;;4.00;3.60;;;;;;;-143.84;63.66;44978.63;4897829;29;20519;-55
2023/07/02 08:39:21;;;;;;;7.47;3.97;;;;;;;-143.84;65.98;44948.16;4903908;29;20549;-55
2023/07/02 08:41:49;;;;;;;6.70;4.10;;;;;;;-143.84;68.22;45001.47;4913216;29;20457;-55
2023/07/02 08:44:21;;;;;;;6.03;4.10;;;;;;;-143.84;69.09;44976.72;4912884;29;20506;-55
2023/07/02 08:46:50;;;;;;;6.93;3.67;;;;;;;-143.84;69.49;44972.91;4910127;29;20450;-55
2023/07/02 08:49:19;;;;;;;3.97;3.63;;;;;;;-143.84;69.28;44974.81;4913041;29;20490;-55
2023/07/02 08:51:47;;;;;;;6.60;4.60;;;;;;;-143.84;69.86;44965.28;4895390;29;20470;-55
2023/07/02 08:54:14;;;;;;;4.77;4.10;;;;;;;-143.84;69.88;44963.38;4902789;29;20444;-55
2023/07/02 08:56:41;;;;;;;15.40;4.67;;;;;;;-143.84;70.88;45003.38;4913205;29;20443;-57
2023/07/02 08:59:09;;;;;;;4.47;4.03;;;;;;;-143.84;70.46;44972.91;4912838;29;20452;-55
2023/07/02 09:01:46;;;;;;;5.53;3.80;;;;;;;-143.84;70.66;44982.41;4902241;29;20460;-55
2023/07/02 09:04:18;;;;;;;11.00;4.13;;;;;;;-143.84;69.65;44942.44;4903331;29;20452;-55
2023/07/02 09:06:46;;;;;;;6.00;3.50;;;;;;;-143.84;69.07;44988.13;4913062;29;20840;-55
2023/07/02 09:09:13;;;;;;;8.97;3.90;;;;;;;-143.84;69.58;44957.66;4912773;29;20448;-55
2023/07/02 09:11:50;;;;;;;7.53;3.77;;;;;;;-143.84;71.20;44997.66;4912800;29;20449;-55
2023/07/02 09:14:28;;;;;;;4.97;4.20;;;;;;;-143.84;69.75;44972.91;4912657;29;20491;-55
2023/07/02 09:17:06;;;;;;;8.53;3.90;;;;;;;-143.84;70.97;44974.81;4914600;29;20504;-55
2023/07/02 09:19:35;;;;;;;5.63;4.30;;;;;;;-143.84;69.61;45003.38;4914293;29;20493;-55
2023/07/02 09:22:03;;;;;;;5.13;3.80;;;;;;;-143.84;70.37;44988.13;4914429;29;20613;-55
2023/07/02 09:24:32;;;;;;;7.00;4.17;;;;;;;-143.84;71.00;44967.19;4905818;29;20459;-55
2023/07/02 09:27:00;;;;;;;15.43;3.73;;;;;;;-143.84;71.61;44976.72;4907008;29;20529;-55
2023/07/02 09:29:30;;;;;;;9.23;4.30;;;;;;;-143.84;69.28;44953.88;4908932;29;20881;-55
2023/07/02 09:31:58;;;;;;;5.80;4.50;;;;;;;-143.84;69.99;45005.28;4907730;29;20444;-55
2023/07/02 09:34:30;;;;;;;5.07;4.37;;;;;;;-143.84;70.40;44991.94;4899369;29;20952;-55
2023/07/02 09:36:59;;;;;;;7.27;4.47;;;;;;;-143.84;69.70;44991.94;4899487;29;20437;-55
2023/07/02 09:39:30;;;;;;;5.67;4.13;;;;;;;-143.84;68.24;44965.28;4899370;29;20444;-55
2023/07/02 09:41:58;;;;;;;7.43;4.40;;;;;;;-143.84;67.64;44988.13;4899314;29;20452;-55
2023/07/02 09:44:30;;;;;;;7.57;3.40;;;;;;;-143.84;66.60;44972.91;4899327;29;20457;-55
2023/07/02 09:47:03;;;;;;;4.33;3.67;;;;;;;-143.84;66.40;44948.16;4899233;29;20897;-55
2023/07/02 09:49:34;;;;;;;4.23;3.90;;;;;;;-143.84;65.85;44946.25;4899125;29;20481;-55
2023/07/02 09:52:05;;;;;;;5.20;4.80;;;;;;;-143.84;66.82;44942.44;4899055;29;20456;-55
2023/07/02 09:54:32;;;;;;;196.97;178.03;;;;;;;-143.84;65.28;44991.94;4898878;29;21007;-58
2023/07/02 09:57:00;;;;;;;35.07;31.10;;;;;;;-143.84;65.98;44953.88;4899186;29;20516;-57
2023/07/02 09:59:28;;;;;;;20.43;13.70;;;;;;;-143.84;64.41;44955.75;4898965;29;20456;-57
2023/07/02 10:01:55;;;;;;;656.23;438.90;;;;;;;-143.84;66.33;44972.91;4898938;29;20516;-61
2023/07/02 10:04:24;;;;;;;673.17;600.73;;;;;;;-143.84;65.72;44982.41;4898622;29;20464;-57
2023/07/02 10:06:52;;;;;;;226.97;196.87;;;;;;;-143.84;65.65;44931.00;4898807;29;20449;-58
2023/07/02 10:09:21;;;;;;;309.93;132.43;;;;;;;-143.84;64.16;44971.00;4917491;29;20504;-57
2023/07/02 10:11:48;;;;;;;101.40;91.07;;;;;;;-143.84;62.92;44972.91;4917651;29;20448;-62
2023/07/02 10:14:15;;;;;;;422.63;379.27;;;;;;;-143.84;64.42;44963.38;4917026;29;20547;-57
2023/07/02 10:16:53;;;;;;;34.43;31.33;;;;;;;-143.84;64.61;44959.56;4916277;29;20807;-60
2023/07/02 10:19:20;;;;;;;31.20;28.07;;;;;;;-143.84;63.11;44971.00;4916091;29;20444;-58
2023/07/02 10:21:49;;;;;;;22.00;14.40;;;;;;;-143.84;65.04;44963.38;4915715;29;20491;-57
2023/07/02 10:24:18;;;;;;;293.87;263.43;;;;;;;-143.84;64.87;44967.19;4915433;29;20484;-62
2023/07/02 10:26:56;;;;;;;1805.10;959.20;;;;;;;-143.84;66.48;44959.56;4913662;29;20526;-55
2023/07/02 10:29:24;;;;;;;87.23;41.93;;;;;;;-143.84;64.52;44950.06;4895943;29;20452;-55
2023/07/02 10:31:52;;;;;;;6.90;4.13;;;;;;;-143.84;66.29;44931.00;4908413;29;21002;-60
2023/07/02 10:34:33;;;;;;;513.70;464.33;;;;;;;-143.84;64.51;44991.94;4914392;29;20452;-61
2023/07/02 10:37:02;;;;;;;153.77;138.17;;;;;;;-143.84;63.25;44993.84;4904794;29;20460;-60
2023/07/02 10:39:30;;;;;;;93.67;85.77;;;;;;;-143.84;61.91;44971.00;4899208;29;20535;-57
2023/07/02 10:42:07;;;;;;;858.37;766.30;;;;;;;-143.84;63.89;44969.09;4898377;29;20587;-57
2023/07/02 10:44:34;;;;;;;1755.90;934.63;;;;;;;-143.84;60.39;44976.72;4895158;29;20456;-57
2023/07/02 10:47:04;;;;;;;77.13;50.10;;;;;;;-143.84;64.31;44990.03;4894890;29;20522;-57
2023/07/02 10:49:33;;;;;;;28.73;25.80;;;;;;;-143.84;65.05;44972.91;4895358;29;21416;-57
2023/07/02 10:52:00;;;;;;;3.63;3.43;;;;;;;-143.84;64.63;44971.00;4895094;29;20953;-57
2023/07/02 10:54:39;;;;;;;3.97;3.40;;;;;;;-143.84;63.91;44982.41;4894863;29;20448;-57
2023/07/02 10:57:08;;;;;;;11.50;3.73;;;;;;;-143.84;64.62;44959.56;4895403;29;20546;-57
2023/07/02 10:59:36;;;;;;;11.00;3.40;;;;;;;-143.84;65.90;44971.00;4896076;29;20480;-57
2023/07/02 11:02:03;;;;;;;5.17;3.40;;;;;;;-143.84;64.19;44959.56;4896111;29;20497;-57
2023/07/02 11:04:31;;;;;;;14.33;3.70;;;;;;;-143.84;63.94;44934.81;4895893;29;20954;-57
2023/07/02 11:06:59;;;;;;;3.53;3.23;;;;;;;-143.84;64.81;44980.53;4896195;29;20473;-57
2023/07/02 11:09:26;;;;;;;4.77;4.07;;;;;;;-143.84;64.15;44969.09;4895865;29;20511;-57
2023/07/02 11:11:55;;;;;;;5.07;3.30;;;;;;;-143.84;64.87;44963.38;4895939;29;20449;-57
2023/07/02 11:14:32;;;;;;;3.93;3.53;;;;;;;-143.84;64.92;44959.56;4895935;29;20528;-57
2023/07/02 11:17:02;;;;;;;5.83;3.30;;;;;;;-143.84;65.16;44950.06;4896019;29;20871;-56
2023/07/02 11:19:29;;;;;;;7.10;3.53;;;;;;;-143.84;65.94;44948.16;4895902;29;20473;-57